sensor_id;sensor_type;location;lat;lon;timestamp;pressure;altitude;pressure_sealevel;temperature;humidity
32733;BME280;11867;51.198;11.966;2022-08-19T00:04:40;99906.97;;;22.46;99.92
32733;BME280;11867;51.198;11.966;2022-08-19T00:09:42;99914.75;;;22.36;100.00
32733;BME280;11867;51.198;11.966;2022-08-19T00:14:46;99916.91;;;22.70;99.78
32733;BME280;11867;51.198;11.966;2022-08-19T00:19:48;99929.03;;;21.73;100.00
32733;BME280;11867;51.198;11.966;2022-08-19T00:24:51;99940.72;;;21.43;100.00
32733;BME280;11867;51.198;11.966;2022-08-19T00:29:56;99940.22;;;22.19;100.00
32733;BME280;11867;51.198;11.966;2022-08-19T00:35:00;99931.97;;;22.46;100.00
32733;BME280;11867;51.198;11.966;2022-08-19T00:40:06;99940.03;;;22.77;97.64
32733;BME280;11867;51.198;11.966;2022-08-19T00:45:12;99933.31;;;22.79;98.36
32733;BME280;11867;51.198;11.966;2022-08-19T00:50:18;99919.88;;;22.58;100.00
32733;BME280;11867;51.198;11.966;2022-08-19T00:55:24;99911.66;;;22.42;100.00
32733;BME280;11867;51.198;11.966;2022-08-19T01:00:31;99900.88;;;22.63;98.89
32733;BME280;11867;51.198;11.966;2022-08-19T01:05:34;99885.94;;;22.71;96.02
32733;BME280;11867;51.198;11.966;2022-08-19T01:10:40;99885.72;;;22.84;97.83
32733;BME280;11867;51.198;11.966;2022-08-19T01:15:54;99875.00;;;22.82;96.39
32733;BME280;11867;51.198;11.966;2022-08-19T01:21:01;99855.84;;;22.77;95.74
32733;BME280;11867;51.198;11.966;2022-08-19T01:26:06;99851.09;;;22.51;99.43
32733;BME280;11867;51.198;11.966;2022-08-19T01:31:10;99836.13;;;22.32;100.00
32733;BME280;11867;51.198;11.966;2022-08-19T01:36:30;99816.50;;;21.99;100.00
32733;BME280;11867;51.198;11.966;2022-08-19T01:41:36;99804.97;;;21.96;100.00
32733;BME280;11867;51.198;11.966;2022-08-19T01:46:39;99801.03;;;21.98;100.00
32733;BME280;11867;51.198;11.966;2022-08-19T01:51:42;99800.53;;;21.92;100.00
32733;BME280;11867;51.198;11.966;2022-08-19T01:56:46;99795.22;;;21.41;100.00
32733;BME280;11867;51.198;11.966;2022-08-19T02:01:49;99804.38;;;21.84;100.00
32733;BME280;11867;51.198;11.966;2022-08-19T02:06:51;99825.53;;;21.69;100.00
32733;BME280;11867;51.198;11.966;2022-08-19T02:11:55;99821.63;;;21.96;100.00
32733;BME280;11867;51.198;11.966;2022-08-19T02:16:58;99814.59;;;22.03;100.00
32733;BME280;11867;51.198;11.966;2022-08-19T02:22:00;99803.25;;;21.65;100.00
32733;BME280;11867;51.198;11.966;2022-08-19T02:27:04;99794.94;;;21.88;100.00
32733;BME280;11867;51.198;11.966;2022-08-19T02:32:07;99785.66;;;21.58;100.00
32733;BME280;11867;51.198;11.966;2022-08-19T02:37:10;99787.09;;;21.48;100.00
32733;BME280;11867;51.198;11.966;2022-08-19T02:42:36;99780.25;;;21.65;100.00
32733;BME280;11867;51.198;11.966;2022-08-19T02:47:39;99797.34;;;21.67;100.00
32733;BME280;11867;51.198;11.966;2022-08-19T02:52:42;99790.06;;;21.59;100.00
32733;BME280;11867;51.198;11.966;2022-08-19T02:57:46;99775.94;;;21.67;100.00
32733;BME280;11867;51.198;11.966;2022-08-19T03:02:48;99800.28;;;21.77;100.00
32733;BME280;11867;51.198;11.966;2022-08-19T03:07:51;99807.38;;;21.98;100.00
32733;BME280;11867;51.198;11.966;2022-08-19T03:12:54;99820.75;;;21.69;100.00
32733;BME280;11867;51.198;11.966;2022-08-19T03:17:57;99844.50;;;21.67;100.00
32733;BME280;11867;51.198;11.966;2022-08-19T03:23:00;99868.09;;;22.00;100.00
32733;BME280;11867;51.198;11.966;2022-08-19T03:28:04;99880.00;;;22.00;100.00
32733;BME280;11867;51.198;11.966;2022-08-19T03:33:08;99901.22;;;22.12;100.00
32733;BME280;11867;51.198;11.966;2022-08-19T03:38:18;99925.25;;;22.24;100.00
32733;BME280;11867;51.198;11.966;2022-08-19T03:43:22;99923.63;;;22.46;100.00
32733;BME280;11867;51.198;11.966;2022-08-19T03:48:24;99909.88;;;22.80;97.77
32733;BME280;11867;51.198;11.966;2022-08-19T03:53:28;99911.13;;;22.55;100.00
32733;BME280;11867;51.198;11.966;2022-08-19T03:58:33;99914.75;;;22.36;100.00
32733;BME280;11867;51.198;11.966;2022-08-19T04:03:35;99913.47;;;22.53;100.00
32733;BME280;11867;51.198;11.966;2022-08-19T04:08:39;99918.81;;;22.43;100.00
32733;BME280;11867;51.198;11.966;2022-08-19T04:13:43;99923.31;;;22.28;100.00
32733;BME280;11867;51.198;11.966;2022-08-19T04:18:47;99915.72;;;22.02;100.00
32733;BME280;11867;51.198;11.966;2022-08-19T04:23:50;99918.03;;;22.42;99.80
32733;BME280;11867;51.198;11.966;2022-08-19T04:28:57;99908.91;;;22.68;97.11
32733;BME280;11867;51.198;11.966;2022-08-19T04:34:01;99895.97;;;22.80;95.75
32733;BME280;11867;51.198;11.966;2022-08-19T04:39:08;99887.19;;;22.74;98.32
32733;BME280;11867;51.198;11.966;2022-08-19T04:44:12;99890.53;;;22.87;96.91
32733;BME280;11867;51.198;11.966;2022-08-19T04:49:16;99894.25;;;22.98;94.93
32733;BME280;11867;51.198;11.966;2022-08-19T04:54:20;99899.19;;;23.08;95.40
32733;BME280;11867;51.198;11.966;2022-08-19T04:59:40;99894.84;;;23.07;94.80
32733;BME280;11867;51.198;11.966;2022-08-19T05:04:43;99897.16;;;23.32;93.71
32733;BME280;11867;51.198;11.966;2022-08-19T05:09:45;99905.13;;;23.37;92.67
32733;BME280;11867;51.198;11.966;2022-08-19T05:15:04;99900.06;;;23.43;91.93
32733;BME280;11867;51.198;11.966;2022-08-19T05:20:08;99898.25;;;23.57;91.20
32733;BME280;11867;51.198;11.966;2022-08-19T05:25:28;99907.50;;;23.35;92.73
32733;BME280;11867;51.198;11.966;2022-08-19T05:30:32;99912.34;;;23.42;91.55
32733;BME280;11867;51.198;11.966;2022-08-19T05:35:50;99924.75;;;23.17;93.82
32733;BME280;11867;51.198;11.966;2022-08-19T05:40:53;99928.47;;;23.29;93.31
32733;BME280;11867;51.198;11.966;2022-08-19T05:45:57;99933.56;;;23.23;93.11
32733;BME280;11867;51.198;11.966;2022-08-19T05:51:04;99930.91;;;23.04;94.53
32733;BME280;11867;51.198;11.966;2022-08-19T05:56:09;99927.91;;;23.16;92.92
32733;BME280;11867;51.198;11.966;2022-08-19T06:01:15;99926.13;;;22.77;97.19
32733;BME280;11867;51.198;11.966;2022-08-19T06:06:18;99923.16;;;23.16;95.52
32733;BME280;11867;51.198;11.966;2022-08-19T06:11:23;99934.22;;;22.63;96.82
32733;BME280;11867;51.198;11.966;2022-08-19T06:16:27;99930.31;;;22.41;97.42
32733;BME280;11867;51.198;11.966;2022-08-19T06:21:33;99937.75;;;21.52;100.00
32733;BME280;11867;51.198;11.966;2022-08-19T06:26:41;99961.22;;;21.23;100.00
32733;BME280;11867;51.198;11.966;2022-08-19T06:31:53;99983.91;;;20.93;100.00
32733;BME280;11867;51.198;11.966;2022-08-19T06:36:57;100003.59;;;20.88;100.00
32733;BME280;11867;51.198;11.966;2022-08-19T06:42:03;100030.22;;;20.76;100.00
32733;BME280;11867;51.198;11.966;2022-08-19T06:47:14;100016.03;;;20.78;100.00
32733;BME280;11867;51.198;11.966;2022-08-19T06:52:25;100039.34;;;20.61;100.00
32733;BME280;11867;51.198;11.966;2022-08-19T06:57:28;100042.84;;;20.46;100.00
32733;BME280;11867;51.198;11.966;2022-08-19T07:02:35;100061.84;;;20.60;100.00
32733;BME280;11867;51.198;11.966;2022-08-19T07:07:38;100065.44;;;20.76;100.00
32733;BME280;11867;51.198;11.966;2022-08-19T07:12:47;100062.25;;;20.90;100.00
32733;BME280;11867;51.198;11.966;2022-08-19T07:17:52;100069.56;;;20.98;100.00
32733;BME280;11867;51.198;11.966;2022-08-19T07:22:55;100069.81;;;20.93;100.00
32733;BME280;11867;51.198;11.966;2022-08-19T07:27:58;100067.25;;;21.00;100.00
32733;BME280;11867;51.198;11.966;2022-08-19T07:33:03;100062.75;;;21.11;100.00
32733;BME280;11867;51.198;11.966;2022-08-19T07:38:05;100067.22;;;21.16;100.00
32733;BME280;11867;51.198;11.966;2022-08-19T07:43:08;100070.00;;;21.16;100.00
32733;BME280;11867;51.198;11.966;2022-08-19T07:48:19;100077.34;;;20.92;100.00
32733;BME280;11867;51.198;11.966;2022-08-19T07:53:22;100083.16;;;21.03;100.00
32733;BME280;11867;51.198;11.966;2022-08-19T07:58:24;100071.06;;;21.27;100.00
32733;BME280;11867;51.198;11.966;2022-08-19T08:03:28;100079.38;;;21.11;100.00
32733;BME280;11867;51.198;11.966;2022-08-19T08:08:45;100080.97;;;21.12;100.00
32733;BME280;11867;51.198;11.966;2022-08-19T08:14:07;100094.66;;;21.37;100.00
32733;BME280;11867;51.198;11.966;2022-08-19T08:19:32;100095.09;;;21.39;100.00
32733;BME280;11867;51.198;11.966;2022-08-19T08:24:35;100105.63;;;22.01;95.31
32733;BME280;11867;51.198;11.966;2022-08-19T08:29:40;100109.09;;;21.78;94.61
32733;BME280;11867;51.198;11.966;2022-08-19T08:34:44;100116.66;;;21.97;92.40
32733;BME280;11867;51.198;11.966;2022-08-19T08:39:52;100109.41;;;21.73;93.27
32733;BME280;11867;51.198;11.966;2022-08-19T08:44:58;100120.25;;;21.62;94.31
32733;BME280;11867;51.198;11.966;2022-08-19T08:50:06;100127.25;;;21.91;91.95
32733;BME280;11867;51.198;11.966;2022-08-19T08:55:13;100128.66;;;22.21;90.45
32733;BME280;11867;51.198;11.966;2022-08-19T09:00:21;100131.06;;;22.03;88.30
32733;BME280;11867;51.198;11.966;2022-08-19T09:05:33;100138.94;;;22.01;90.33
32733;BME280;11867;51.198;11.966;2022-08-19T09:10:51;100138.94;;;22.01;91.08
32733;BME280;11867;51.198;11.966;2022-08-19T09:15:58;100142.28;;;22.26;88.23
32733;BME280;11867;51.198;11.966;2022-08-19T09:21:04;100160.13;;;22.09;87.70
32733;BME280;11867;51.198;11.966;2022-08-19T09:26:08;100143.41;;;22.05;89.11
32733;BME280;11867;51.198;11.966;2022-08-19T09:31:13;100158.66;;;21.95;88.31
32733;BME280;11867;51.198;11.966;2022-08-19T09:36:20;100147.03;;;21.90;87.79
32733;BME280;11867;51.198;11.966;2022-08-19T09:41:35;100128.19;;;21.99;86.82
32733;BME280;11867;51.198;11.966;2022-08-19T09:46:38;100142.59;;;22.05;88.32
32733;BME280;11867;51.198;11.966;2022-08-19T09:51:42;100138.28;;;21.88;85.92
32733;BME280;11867;51.198;11.966;2022-08-19T09:56:51;100135.59;;;22.11;87.22
32733;BME280;11867;51.198;11.966;2022-08-19T10:01:54;100145.03;;;21.71;91.32
32733;BME280;11867;51.198;11.966;2022-08-19T10:07:05;100156.50;;;21.89;88.37
32733;BME280;11867;51.198;11.966;2022-08-19T10:12:10;100151.97;;;21.81;88.05
32733;BME280;11867;51.198;11.966;2022-08-19T10:17:18;100160.00;;;22.02;87.25
32733;BME280;11867;51.198;11.966;2022-08-19T10:22:28;100174.09;;;21.77;85.35
32733;BME280;11867;51.198;11.966;2022-08-19T10:27:31;100166.00;;;21.52;88.21
32733;BME280;11867;51.198;11.966;2022-08-19T10:32:36;100161.88;;;21.62;86.10
32733;BME280;11867;51.198;11.966;2022-08-19T10:37:48;100151.81;;;21.10;89.29
32733;BME280;11867;51.198;11.966;2022-08-19T10:43:02;100156.84;;;21.36;89.27
32733;BME280;11867;51.198;11.966;2022-08-19T10:48:05;100152.78;;;21.81;87.04
32733;BME280;11867;51.198;11.966;2022-08-19T10:53:17;100151.13;;;21.61;88.47
32733;BME280;11867;51.198;11.966;2022-08-19T10:58:23;100150.78;;;21.46;89.52
32733;BME280;11867;51.198;11.966;2022-08-19T11:03:27;100151.25;;;21.04;92.67
32733;BME280;11867;51.198;11.966;2022-08-19T11:08:32;100164.44;;;20.63;95.71
32733;BME280;11867;51.198;11.966;2022-08-19T11:13:38;100153.63;;;20.46;98.40
32733;BME280;11867;51.198;11.966;2022-08-19T11:18:45;100159.69;;;20.92;93.36
32733;BME280;11867;51.198;11.966;2022-08-19T11:23:52;100155.03;;;20.96;92.54
32733;BME280;11867;51.198;11.966;2022-08-19T11:28:56;100155.72;;;20.93;92.71
32733;BME280;11867;51.198;11.966;2022-08-19T11:34:03;100170.06;;;20.54;94.60
32733;BME280;11867;51.198;11.966;2022-08-19T11:39:09;100173.66;;;20.14;95.09
32733;BME280;11867;51.198;11.966;2022-08-19T11:44:13;100186.91;;;20.21;95.55
32733;BME280;11867;51.198;11.966;2022-08-19T11:49:18;100175.56;;;20.39;95.53
32733;BME280;11867;51.198;11.966;2022-08-19T11:54:23;100173.72;;;20.99;90.06
32733;BME280;11867;51.198;11.966;2022-08-19T11:59:27;100166.84;;;21.09;88.12
32733;BME280;11867;51.198;11.966;2022-08-19T12:04:30;100169.44;;;20.45;91.06
32733;BME280;11867;51.198;11.966;2022-08-19T12:09:34;100157.47;;;19.76;94.11
32733;BME280;11867;51.198;11.966;2022-08-19T12:14:42;100148.88;;;20.18;92.85
32733;BME280;11867;51.198;11.966;2022-08-19T12:19:45;100143.75;;;20.89;88.01
32733;BME280;11867;51.198;11.966;2022-08-19T12:24:49;100135.81;;;21.19;86.46
32733;BME280;11867;51.198;11.966;2022-08-19T12:29:54;100128.28;;;21.67;85.04
32733;BME280;11867;51.198;11.966;2022-08-19T12:34:57;100122.59;;;21.95;82.79
32733;BME280;11867;51.198;11.966;2022-08-19T12:40:01;100119.66;;;21.72;84.20
32733;BME280;11867;51.198;11.966;2022-08-19T12:45:05;100108.56;;;21.72;83.66
32733;BME280;11867;51.198;11.966;2022-08-19T12:50:11;100124.72;;;21.35;86.29
32733;BME280;11867;51.198;11.966;2022-08-19T12:55:15;100126.72;;;22.41;82.17
32733;BME280;11867;51.198;11.966;2022-08-19T13:00:21;100131.34;;;23.18;79.64
32733;BME280;11867;51.198;11.966;2022-08-19T13:05:26;100116.53;;;24.17;76.46
32733;BME280;11867;51.198;11.966;2022-08-19T13:10:34;100116.38;;;25.11;73.40
32733;BME280;11867;51.198;11.966;2022-08-19T13:15:41;100105.47;;;24.54;72.49
32733;BME280;11867;51.198;11.966;2022-08-19T13:20:49;100117.44;;;26.00;70.07
32733;BME280;11867;51.198;11.966;2022-08-19T13:25:58;100129.56;;;25.59;68.55
32733;BME280;11867;51.198;11.966;2022-08-19T13:31:01;100139.28;;;24.90;72.48
32733;BME280;11867;51.198;11.966;2022-08-19T13:36:21;100137.66;;;25.27;71.82
32733;BME280;11867;51.198;11.966;2022-08-19T13:41:25;100147.69;;;25.35;70.60
32733;BME280;11867;51.198;11.966;2022-08-19T13:46:28;100161.75;;;25.05;70.77
32733;BME280;11867;51.198;11.966;2022-08-19T13:51:31;100167.75;;;24.69;72.98
32733;BME280;11867;51.198;11.966;2022-08-19T13:56:40;100158.16;;;24.67;72.30
32733;BME280;11867;51.198;11.966;2022-08-19T14:01:43;100161.81;;;24.41;74.13
32733;BME280;11867;51.198;11.966;2022-08-19T14:06:47;100174.47;;;24.04;73.21
32733;BME280;11867;51.198;11.966;2022-08-19T14:11:51;100176.38;;;23.73;76.64
32733;BME280;11867;51.198;11.966;2022-08-19T14:16:53;100176.34;;;23.47;75.66
32733;BME280;11867;51.198;11.966;2022-08-19T14:21:56;100163.16;;;23.44;76.86
32733;BME280;11867;51.198;11.966;2022-08-19T14:27:00;100164.09;;;22.86;78.77
32733;BME280;11867;51.198;11.966;2022-08-19T14:32:05;100167.13;;;22.77;77.96
32733;BME280;11867;51.198;11.966;2022-08-19T14:37:12;100177.97;;;22.08;82.40
32733;BME280;11867;51.198;11.966;2022-08-19T14:42:16;100173.03;;;22.75;79.44
32733;BME280;11867;51.198;11.966;2022-08-19T14:47:19;100181.66;;;23.32;76.45
32733;BME280;11867;51.198;11.966;2022-08-19T14:52:23;100156.47;;;23.22;80.09
32733;BME280;11867;51.198;11.966;2022-08-19T14:57:27;100151.66;;;22.99;78.69
32733;BME280;11867;51.198;11.966;2022-08-19T15:02:30;100145.00;;;23.04;79.23
32733;BME280;11867;51.198;11.966;2022-08-19T15:07:35;100146.84;;;23.19;78.88
32733;BME280;11867;51.198;11.966;2022-08-19T15:12:40;100145.81;;;23.77;75.99
32733;BME280;11867;51.198;11.966;2022-08-19T15:17:44;100150.50;;;23.73;77.42
32733;BME280;11867;51.198;11.966;2022-08-19T15:22:47;100151.84;;;23.56;76.50
32733;BME280;11867;51.198;11.966;2022-08-19T15:27:51;100151.00;;;23.29;77.47
32733;BME280;11867;51.198;11.966;2022-08-19T15:32:55;100145.00;;;23.27;77.59
32733;BME280;11867;51.198;11.966;2022-08-19T15:37:58;100147.94;;;23.61;76.38
32733;BME280;11867;51.198;11.966;2022-08-19T15:43:02;100148.63;;;23.54;77.48
32733;BME280;11867;51.198;11.966;2022-08-19T15:48:04;100140.31;;;23.31;77.81
32733;BME280;11867;51.198;11.966;2022-08-19T15:53:09;100135.63;;;23.62;77.76
32733;BME280;11867;51.198;11.966;2022-08-19T15:58:13;100153.28;;;23.96;75.82
32733;BME280;11867;51.198;11.966;2022-08-19T16:03:33;100160.06;;;23.99;74.87
32733;BME280;11867;51.198;11.966;2022-08-19T16:08:55;100145.16;;;23.84;75.59
32733;BME280;11867;51.198;11.966;2022-08-19T16:14:01;100149.44;;;23.54;75.68
32733;BME280;11867;51.198;11.966;2022-08-19T16:19:06;100147.72;;;23.46;77.13
32733;BME280;11867;51.198;11.966;2022-08-19T16:24:14;100137.22;;;23.36;77.63
32733;BME280;11867;51.198;11.966;2022-08-19T16:29:18;100127.16;;;23.28;77.92
32733;BME280;11867;51.198;11.966;2022-08-19T16:34:39;100129.31;;;23.65;76.51
32733;BME280;11867;51.198;11.966;2022-08-19T16:39:43;100124.16;;;23.90;75.68
32733;BME280;11867;51.198;11.966;2022-08-19T16:44:47;100130.03;;;23.85;76.13
32733;BME280;11867;51.198;11.966;2022-08-19T16:49:50;100129.56;;;23.56;75.46
32733;BME280;11867;51.198;11.966;2022-08-19T16:54:55;100134.66;;;23.50;77.57
32733;BME280;11867;51.198;11.966;2022-08-19T16:59:59;100134.84;;;23.88;73.96
32733;BME280;11867;51.198;11.966;2022-08-19T17:05:06;100137.91;;;23.79;73.86
32733;BME280;11867;51.198;11.966;2022-08-19T17:10:09;100140.38;;;23.84;74.85
32733;BME280;11867;51.198;11.966;2022-08-19T17:15:13;100127.88;;;23.25;77.21
32733;BME280;11867;51.198;11.966;2022-08-19T17:20:15;100123.75;;;23.38;76.27
32733;BME280;11867;51.198;11.966;2022-08-19T17:25:18;100124.03;;;23.33;77.52
32733;BME280;11867;51.198;11.966;2022-08-19T17:30:23;100130.69;;;23.51;77.00
32733;BME280;11867;51.198;11.966;2022-08-19T17:35:26;100123.84;;;23.45;77.24
32733;BME280;11867;51.198;11.966;2022-08-19T17:40:29;100112.00;;;23.25;78.52
32733;BME280;11867;51.198;11.966;2022-08-19T17:45:34;100124.88;;;22.68;82.66
32733;BME280;11867;51.198;11.966;2022-08-19T17:50:37;100136.59;;;22.58;82.65
32733;BME280;11867;51.198;11.966;2022-08-19T17:55:40;100138.53;;;22.57;82.65
32733;BME280;11867;51.198;11.966;2022-08-19T18:00:50;100145.56;;;22.70;82.52
32733;BME280;11867;51.198;11.966;2022-08-19T18:05:55;100147.00;;;22.84;82.39
32733;BME280;11867;51.198;11.966;2022-08-19T18:10:59;100145.78;;;22.42;84.25
32733;BME280;11867;51.198;11.966;2022-08-19T18:16:04;100137.50;;;22.65;83.09
32733;BME280;11867;51.198;11.966;2022-08-19T18:21:07;100131.69;;;22.93;81.93
32733;BME280;11867;51.198;11.966;2022-08-19T18:26:10;100132.81;;;22.69;83.41
32733;BME280;11867;51.198;11.966;2022-08-19T18:31:14;100133.84;;;22.81;83.12
32733;BME280;11867;51.198;11.966;2022-08-19T18:36:18;100136.53;;;22.96;82.30
32733;BME280;11867;51.198;11.966;2022-08-19T18:41:40;100152.28;;;22.69;82.67
32733;BME280;11867;51.198;11.966;2022-08-19T18:47:02;100154.38;;;21.82;87.00
32733;BME280;11867;51.198;11.966;2022-08-19T18:52:22;100159.78;;;22.26;85.40
32733;BME280;11867;51.198;11.966;2022-08-19T18:57:27;100170.09;;;22.10;85.38
32733;BME280;11867;51.198;11.966;2022-08-19T19:02:35;100183.13;;;22.45;83.42
32733;BME280;11867;51.198;11.966;2022-08-19T19:07:39;100200.78;;;21.82;87.21
32733;BME280;11867;51.198;11.966;2022-08-19T19:12:42;100190.75;;;21.61;89.34
32733;BME280;11867;51.198;11.966;2022-08-19T19:17:47;100194.19;;;22.06;87.41
32733;BME280;11867;51.198;11.966;2022-08-19T19:22:50;100192.34;;;22.49;85.29
32733;BME280;11867;51.198;11.966;2022-08-19T19:27:56;100197.34;;;22.79;81.98
32733;BME280;11867;51.198;11.966;2022-08-19T19:33:00;100207.56;;;22.35;85.67
32733;BME280;11867;51.198;11.966;2022-08-19T19:38:03;100211.16;;;20.93;95.12
32733;BME280;11867;51.198;11.966;2022-08-19T19:43:08;100212.41;;;21.87;88.82
32733;BME280;11867;51.198;11.966;2022-08-19T19:48:12;100207.50;;;22.16;86.79
32733;BME280;11867;51.198;11.966;2022-08-19T19:53:17;100204.28;;;22.14;85.66
32733;BME280;11867;51.198;11.966;2022-08-19T19:58:19;100228.41;;;22.10;83.91
32733;BME280;11867;51.198;11.966;2022-08-19T20:03:30;100219.06;;;22.18;83.86
32733;BME280;11867;51.198;11.966;2022-08-19T20:08:33;100213.91;;;22.36;82.36
32733;BME280;11867;51.198;11.966;2022-08-19T20:13:53;100232.50;;;20.64;96.02
32733;BME280;11867;51.198;11.966;2022-08-19T20:18:58;100228.44;;;21.46;89.65
32733;BME280;11867;51.198;11.966;2022-08-19T20:24:03;100232.09;;;21.98;85.24
32733;BME280;11867;51.198;11.966;2022-08-19T20:29:10;100235.84;;;21.90;85.74
32733;BME280;11867;51.198;11.966;2022-08-19T20:34:34;100240.16;;;21.55;89.16
32733;BME280;11867;51.198;11.966;2022-08-19T20:39:38;100240.31;;;21.94;86.81
32733;BME280;11867;51.198;11.966;2022-08-19T20:44:41;100235.75;;;21.86;87.67
32733;BME280;11867;51.198;11.966;2022-08-19T20:49:44;100229.56;;;22.09;87.07
32733;BME280;11867;51.198;11.966;2022-08-19T20:54:47;100228.09;;;22.15;86.45
32733;BME280;11867;51.198;11.966;2022-08-19T20:59:49;100221.75;;;22.14;85.09
32733;BME280;11867;51.198;11.966;2022-08-19T21:04:53;100214.56;;;21.78;88.01
32733;BME280;11867;51.198;11.966;2022-08-19T21:10:00;100223.88;;;21.54;89.93
32733;BME280;11867;51.198;11.966;2022-08-19T21:15:07;100229.75;;;21.68;88.76
32733;BME280;11867;51.198;11.966;2022-08-19T21:20:11;100228.91;;;21.64;88.78
32733;BME280;11867;51.198;11.966;2022-08-19T21:25:14;100230.47;;;21.97;86.08
32733;BME280;11867;51.198;11.966;2022-08-19T21:30:17;100245.63;;;22.00;86.27
32733;BME280;11867;51.198;11.966;2022-08-19T21:35:21;100242.75;;;21.48;88.59
32733;BME280;11867;51.198;11.966;2022-08-19T21:40:24;100250.84;;;21.25;90.04
32733;BME280;11867;51.198;11.966;2022-08-19T21:45:27;100241.25;;;21.23;90.47
32733;BME280;11867;51.198;11.966;2022-08-19T21:50:31;100234.88;;;21.50;88.68
32733;BME280;11867;51.198;11.966;2022-08-19T21:55:34;100249.72;;;21.42;90.08
32733;BME280;11867;51.198;11.966;2022-08-19T22:00:37;100247.78;;;20.33;99.29
32733;BME280;11867;51.198;11.966;2022-08-19T22:05:41;100262.22;;;20.27;100.00
32733;BME280;11867;51.198;11.966;2022-08-19T22:10:44;100253.72;;;19.83;100.00
32733;BME280;11867;51.198;11.966;2022-08-19T22:15:49;100240.47;;;20.66;97.65
32733;BME280;11867;51.198;11.966;2022-08-19T22:20:53;100231.91;;;20.99;94.21
32733;BME280;11867;51.198;11.966;2022-08-19T22:25:56;100224.19;;;21.36;90.81
32733;BME280;11867;51.198;11.966;2022-08-19T22:30:59;100218.53;;;21.33;90.96
32733;BME280;11867;51.198;11.966;2022-08-19T22:36:05;100224.41;;;21.44;90.92
32733;BME280;11867;51.198;11.966;2022-08-19T22:41:08;100227.31;;;20.50;96.48
32733;BME280;11867;51.198;11.966;2022-08-19T22:46:11;100232.25;;;20.04;100.00
32733;BME280;11867;51.198;11.966;2022-08-19T22:51:19;100218.84;;;20.84;97.18
32733;BME280;11867;51.198;11.966;2022-08-19T22:56:39;100223.94;;;20.82;96.69
32733;BME280;11867;51.198;11.966;2022-08-19T23:01:43;100239.03;;;20.31;100.00
32733;BME280;11867;51.198;11.966;2022-08-19T23:06:47;100246.69;;;20.10;100.00
32733;BME280;11867;51.198;11.966;2022-08-19T23:11:53;100236.09;;;20.52;100.00
32733;BME280;11867;51.198;11.966;2022-08-19T23:16:55;100243.22;;;20.78;97.78
32733;BME280;11867;51.198;11.966;2022-08-19T23:22:01;100245.91;;;20.62;95.80
32733;BME280;11867;51.198;11.966;2022-08-19T23:27:05;100263.94;;;20.31;98.30
32733;BME280;11867;51.198;11.966;2022-08-19T23:32:33;100270.66;;;20.18;99.65
32733;BME280;11867;51.198;11.966;2022-08-19T23:37:37;100248.84;;;20.29;100.00
32733;BME280;11867;51.198;11.966;2022-08-19T23:42:40;100242.19;;;20.99;92.11
32733;BME280;11867;51.198;11.966;2022-08-19T23:47:44;100245.97;;;19.76;100.00
32733;BME280;11867;51.198;11.966;2022-08-19T23:52:51;100244.84;;;20.67;96.86
32733;BME280;11867;51.198;11.966;2022-08-19T23:57:54;100255.19;;;19.92;100.00
